Time;durP1;ratioP1;P1;durP2;ratioP2;P2;SDS_P1;SDS_P2;PMS_P1;PMS_P2;Temp;Humidity;BMP_temperature;BMP_pressure;BME280_temperature;BME280_humidity;BME280_pressure;Samples;Min_cycle;Max_cycle;Signal;HPM_P1;HPM_P2
2022/08/19 00:00:15;;;;;;;6.47;3.85;;;;;;;;;;1818175;79;23415;-72
2022/08/19 00:02:41;;;;;;;9.40;4.08;;;;;;;;;;1789889;80;20996;-73
2022/08/19 00:05:08;;;;;;;6.70;3.92;;;;;;;;;;1786609;80;21043;-74
2022/08/19 00:07:34;;;;;;;8.63;4.03;;;;;;;;;;1785778;80;21324;-73
2022/08/19 00:10:00;;;;;;;8.78;4.03;;;;;;;;;;1782091;80;21555;-72
2022/08/19 00:12:26;;;;;;;7.35;4.17;;;;;;;;;;1792668;80;21520;-72
2022/08/19 00:14:54;;;;;;;9.55;4.00;;;;;;;;;;1783253;80;21091;-72
2022/08/19 00:17:20;;;;;;;8.60;4.25;;;;;;;;;;1785692;79;21081;-72
2022/08/19 00:19:46;;;;;;;6.95;4.15;;;;;;;;;;1778570;79;21024;-72
2022/08/19 00:22:12;;;;;;;7.28;3.67;;;;;;;;;;1782227;80;21027;-72
2022/08/19 00:24:38;;;;;;;7.00;4.03;;;;;;;;;;1778173;80;21063;-72
2022/08/19 00:27:04;;;;;;;6.97;4.08;;;;;;;;;;1788304;80;21056;-72
2022/08/19 00:29:30;;;;;;;8.38;4.17;;;;;;;;;;1785579;80;22210;-72
2022/08/19 00:31:59;;;;;;;12.82;5.03;;;;;;;;;;1788165;79;20977;-72
2022/08/19 00:34:27;;;;;;;11.12;4.00;;;;;;;;;;1786806;80;21005;-72
2022/08/19 00:36:53;;;;;;;8.08;4.45;;;;;;;;;;1779634;80;21544;-72
2022/08/19 00:39:19;;;;;;;5.78;4.03;;;;;;;;;;1785664;80;21508;-72
2022/08/19 00:41:48;;;;;;;8.88;4.15;;;;;;;;;;1727899;82;21476;-72
2022/08/19 00:44:15;;;;;;;8.13;4.30;;;;;;;;;;1744034;82;21473;-72
2022/08/19 00:46:43;;;;;;;9.15;3.80;;;;;;;;;;1741746;81;21057;-72
2022/08/19 00:49:17;;;;;;;6.85;4.37;;;;;;;;;;1753914;81;21016;-72
2022/08/19 00:51:44;;;;;;;7.30;4.33;;;;;;;;;;1756068;80;21027;-72
2022/08/19 00:54:10;;;;;;;7.35;4.12;;;;;;;;;;1760377;81;21586;-72
2022/08/19 00:56:36;;;;;;;7.22;4.15;;;;;;;;;;1750353;81;21019;-72
2022/08/19 00:59:03;;;;;;;8.18;4.17;;;;;;;;;;1709683;83;21104;-72
2022/08/19 01:04:18;;;;;;;10.13;3.95;;;;;;;;;;1679764;83;75110;-72
2022/08/19 01:06:44;;;;;;;6.62;3.75;;;;;;;;;;1693935;83;21069;-72
2022/08/19 01:09:10;;;;;;;8.23;4.40;;;;;;;;;;1702004;83;21032;-72
2022/08/19 01:11:38;;;;;;;6.47;4.17;;;;;;;;;;1705385;83;21048;-73
2022/08/19 01:14:05;;;;;;;10.13;4.42;;;;;;;;;;1734772;81;20995;-73
2022/08/19 01:16:32;;;;;;;8.65;4.60;;;;;;;;;;1732426;81;21073;-72
2022/08/19 01:18:58;;;;;;;9.95;4.00;;;;;;;;;;1732676;82;21094;-73
2022/08/19 01:21:26;;;;;;;5.50;4.15;;;;;;;;;;1728394;81;21001;-73
2022/08/19 01:23:52;;;;;;;9.15;4.55;;;;;;;;;;1730700;81;21007;-72
2022/08/19 01:26:19;;;;;;;9.08;4.45;;;;;;;;;;1734444;81;21405;-73
2022/08/19 01:28:46;;;;;;;8.15;4.30;;;;;;;;;;1731346;82;21019;-73
2022/08/19 01:31:13;;;;;;;6.60;4.30;;;;;;;;;;1733391;82;21537;-73
2022/08/19 01:33:40;;;;;;;8.40;4.60;;;;;;;;;;1731632;81;21042;-72
2022/08/19 01:36:10;;;;;;;7.10;4.17;;;;;;;;;;1733220;81;20996;-73
2022/08/19 01:38:37;;;;;;;7.00;4.20;;;;;;;;;;1733604;81;21027;-73
2022/08/19 01:41:03;;;;;;;6.72;4.55;;;;;;;;;;1734836;82;22096;-74
2022/08/19 01:43:30;;;;;;;8.25;4.92;;;;;;;;;;1737435;81;21557;-73
2022/08/19 01:45:56;;;;;;;7.50;4.25;;;;;;;;;;1731062;81;21086;-73
2022/08/19 01:48:22;;;;;;;8.73;4.00;;;;;;;;;;1731351;81;21071;-73
2022/08/19 01:50:48;;;;;;;7.80;4.42;;;;;;;;;;1732243;82;21443;-73
2022/08/19 01:53:16;;;;;;;7.12;4.50;;;;;;;;;;1728206;81;21043;-73
2022/08/19 01:55:42;;;;;;;8.93;4.55;;;;;;;;;;1739392;81;21490;-73
2022/08/19 01:58:10;;;;;;;10.45;4.55;;;;;;;;;;1736514;81;20972;-73
2022/08/19 02:00:37;;;;;;;11.15;5.67;;;;;;;;;;1732855;82;21004;-73
2022/08/19 02:03:03;;;;;;;6.87;4.50;;;;;;;;;;1727847;81;21103;-73
2022/08/19 02:05:29;;;;;;;9.08;4.50;;;;;;;;;;1723956;81;21028;-73
2022/08/19 02:07:56;;;;;;;7.08;4.67;;;;;;;;;;1690542;84;20993;-72
2022/08/19 02:10:24;;;;;;;6.22;4.70;;;;;;;;;;1654274;86;21097;-73
2022/08/19 02:12:50;;;;;;;10.23;4.78;;;;;;;;;;1690075;85;21110;-73
2022/08/19 02:15:18;;;;;;;7.25;4.80;;;;;;;;;;1689945;84;21532;-73
2022/08/19 02:17:45;;;;;;;8.70;4.53;;;;;;;;;;1693074;85;21001;-73
2022/08/19 02:20:10;;;;;;;9.60;4.60;;;;;;;;;;1690043;85;21028;-73
2022/08/19 02:22:36;;;;;;;8.75;4.45;;;;;;;;;;1690837;85;21615;-72
2022/08/19 02:25:04;;;;;;;6.72;4.47;;;;;;;;;;1693267;85;21009;-72
2022/08/19 02:27:30;;;;;;;6.22;4.15;;;;;;;;;;1692277;84;20993;-72
2022/08/19 02:29:56;;;;;;;8.13;4.65;;;;;;;;;;1692132;85;21052;-73
2022/08/19 02:32:22;;;;;;;10.18;5.28;;;;;;;;;;1690442;85;21001;-73
2022/08/19 02:34:49;;;;;;;6.47;4.35;;;;;;;;;;1692681;85;21061;-73
2022/08/19 02:40:00;;;;;;;12.45;5.33;;;;;;;;;;1692699;85;21033;-72
2022/08/19 02:42:26;;;;;;;7.90;4.80;;;;;;;;;;1693201;85;21050;-72
2022/08/19 02:44:51;;;;;;;10.88;5.25;;;;;;;;;;1693094;85;21006;-73
2022/08/19 02:47:18;;;;;;;6.80;5.15;;;;;;;;;;1690177;84;21937;-73
2022/08/19 02:49:45;;;;;;;7.22;4.90;;;;;;;;;;1692791;83;21015;-73
2022/08/19 02:52:11;;;;;;;8.95;5.37;;;;;;;;;;1691303;85;21556;-73
2022/08/19 02:54:38;;;;;;;7.30;4.37;;;;;;;;;;1689765;84;21053;-73
2022/08/19 02:57:05;;;;;;;7.08;4.85;;;;;;;;;;1688451;85;21025;-71
2022/08/19 02:59:31;;;;;;;10.43;5.00;;;;;;;;;;1705544;83;21085;-72
2022/08/19 03:01:57;;;;;;;8.63;5.22;;;;;;;;;;1690249;83;21119;-72
2022/08/19 03:04:24;;;;;;;8.18;4.42;;;;;;;;;;1660606;86;21115;-73
2022/08/19 03:06:50;;;;;;;9.13;5.05;;;;;;;;;;1692671;84;21185;-72
2022/08/19 03:09:16;;;;;;;9.43;5.55;;;;;;;;;;1686006;85;20998;-73
2022/08/19 03:11:42;;;;;;;6.28;4.37;;;;;;;;;;1693114;85;21055;-72
2022/08/19 03:14:09;;;;;;;6.42;5.53;;;;;;;;;;1692297;85;21053;-72
2022/08/19 03:16:37;;;;;;;12.00;5.60;;;;;;;;;;1691008;85;21079;-72
2022/08/19 03:19:03;;;;;;;8.75;5.22;;;;;;;;;;1692023;83;21041;-73
2022/08/19 03:21:30;;;;;;;7.72;5.00;;;;;;;;;;1694170;84;21019;-73
2022/08/19 03:23:57;;;;;;;8.78;5.00;;;;;;;;;;1689535;83;21086;-73
2022/08/19 03:26:23;;;;;;;10.15;5.12;;;;;;;;;;1690963;83;21005;-73
2022/08/19 03:28:49;;;;;;;7.25;4.60;;;;;;;;;;1690745;83;21054;-72
2022/08/19 03:31:16;;;;;;;9.33;5.28;;;;;;;;;;1686769;85;21564;-73
2022/08/19 03:33:42;;;;;;;9.35;5.25;;;;;;;;;;1693864;83;21017;-73
2022/08/19 03:36:10;;;;;;;11.08;5.42;;;;;;;;;;1674167;83;21010;-73
2022/08/19 03:38:37;;;;;;;7.87;5.50;;;;;;;;;;1661177;86;21576;-72
2022/08/19 03:41:06;;;;;;;6.85;5.08;;;;;;;;;;1692366;84;21704;-72
2022/08/19 03:43:33;;;;;;;14.23;5.15;;;;;;;;;;1691303;85;21108;-72
2022/08/19 03:46:03;;;;;;;8.18;5.22;;;;;;;;;;1687482;85;21616;-73
2022/08/19 03:48:31;;;;;;;11.25;5.35;;;;;;;;;;1691473;84;21476;-73
2022/08/19 03:50:58;;;;;;;6.72;4.87;;;;;;;;;;1692061;85;21072;-76
2022/08/19 03:53:26;;;;;;;6.65;5.00;;;;;;;;;;1690337;85;21048;-73
2022/08/19 03:55:53;;;;;;;7.97;4.70;;;;;;;;;;1693257;85;21044;-73
2022/08/19 03:58:20;;;;;;;9.68;6.15;;;;;;;;;;1694344;85;21092;-73
2022/08/19 04:00:46;;;;;;;10.43;4.92;;;;;;;;;;1689138;85;21508;-73
2022/08/19 04:03:12;;;;;;;10.88;5.25;;;;;;;;;;1690826;83;21069;-73
2022/08/19 04:05:38;;;;;;;8.33;4.78;;;;;;;;;;1698101;83;21064;-73
2022/08/19 04:08:05;;;;;;;10.38;5.40;;;;;;;;;;1679769;83;21080;-73
2022/08/19 04:10:36;;;;;;;8.70;4.97;;;;;;;;;;1718097;83;21028;-72
2022/08/19 04:13:05;;;;;;;7.90;4.58;;;;;;;;;;1692736;85;21088;-73
2022/08/19 04:15:35;;;;;;;6.90;4.75;;;;;;;;;;1724034;83;21068;-73
2022/08/19 04:17:59;;;;;;;7.78;4.65;;;;;;;;;;1724933;83;21080;-72
2022/08/19 04:20:25;;;;;;;7.10;4.58;;;;;;;;;;1720866;82;21049;-72
2022/08/19 04:22:51;;;;;;;8.93;4.83;;;;;;;;;;1724973;83;21004;-72
2022/08/19 04:25:17;;;;;;;7.15;5.00;;;;;;;;;;1725221;83;21055;-72
2022/08/19 04:27:46;;;;;;;8.25;5.10;;;;;;;;;;1723905;83;21563;-71
2022/08/19 04:30:12;;;;;;;7.53;4.50;;;;;;;;;;1716972;83;21076;-72
2022/08/19 04:32:39;;;;;;;10.75;5.67;;;;;;;;;;1720419;83;21571;-74
2022/08/19 04:35:05;;;;;;;10.50;4.67;;;;;;;;;;1720881;82;21008;-73
2022/08/19 04:37:33;;;;;;;7.78;4.78;;;;;;;;;;1724764;83;21036;-73
2022/08/19 04:42:43;;;;;;;10.58;4.72;;;;;;;;;;1724736;83;21079;-72
2022/08/19 04:45:11;;;;;;;9.23;5.00;;;;;;;;;;1724841;83;22198;-73
2022/08/19 04:47:39;;;;;;;6.37;4.65;;;;;;;;;;1725181;83;21064;-73
2022/08/19 04:50:06;;;;;;;9.55;5.12;;;;;;;;;;1723360;82;21067;-73
2022/08/19 04:52:32;;;;;;;8.05;4.25;;;;;;;;;;1693004;83;21539;-73
2022/08/19 04:54:58;;;;;;;10.58;4.62;;;;;;;;;;1717020;82;20974;-72
2022/08/19 04:57:25;;;;;;;10.38;4.90;;;;;;;;;;1724162;83;20997;-73
2022/08/19 04:59:55;;;;;;;7.28;4.45;;;;;;;;;;1724487;83;21044;-73
2022/08/19 05:02:23;;;;;;;7.03;4.70;;;;;;;;;;1724347;82;21055;-73
2022/08/19 05:04:49;;;;;;;9.60;4.60;;;;;;;;;;1691324;83;21053;-73
2022/08/19 05:07:15;;;;;;;10.13;5.05;;;;;;;;;;1725995;82;21072;-73
2022/08/19 05:09:42;;;;;;;8.10;4.80;;;;;;;;;;1691309;83;21005;-73
2022/08/19 05:12:09;;;;;;;9.60;5.00;;;;;;;;;;1720594;83;21100;-74
2022/08/19 05:14:36;;;;;;;9.38;6.72;;;;;;;;;;1725994;82;21083;-73
2022/08/19 05:17:02;;;;;;;9.95;4.75;;;;;;;;;;1720096;83;21515;-72
2022/08/19 05:24:57;;;;;;;7.53;4.65;;;;;;;;;;1722473;82;21001;-73
2022/08/19 05:27:23;;;;;;;9.90;4.83;;;;;;;;;;1725248;83;21084;-73
2022/08/19 05:29:49;;;;;;;7.65;4.75;;;;;;;;;;1724289;83;21012;-73
2022/08/19 05:32:15;;;;;;;9.15;4.78;;;;;;;;;;1692354;83;21312;-72
2022/08/19 05:34:41;;;;;;;10.03;5.05;;;;;;;;;;1673653;85;21042;-74
2022/08/19 05:37:08;;;;;;;7.33;4.50;;;;;;;;;;1662405;86;21060;-74
2022/08/19 05:39:34;;;;;;;8.95;5.15;;;;;;;;;;1724498;82;21051;-72
2022/08/19 05:42:03;;;;;;;9.38;4.70;;;;;;;;;;1723538;82;21099;-73
2022/08/19 05:44:32;;;;;;;9.40;4.83;;;;;;;;;;1692977;85;21029;-72
2022/08/19 05:46:59;;;;;;;7.62;4.55;;;;;;;;;;1690295;84;21062;-73
2022/08/19 05:49:25;;;;;;;12.68;4.70;;;;;;;;;;1709908;82;21111;-73
2022/08/19 05:51:51;;;;;;;10.05;4.53;;;;;;;;;;1730568;82;21044;-72
2022/08/19 05:54:18;;;;;;;9.95;4.62;;;;;;;;;;1725189;83;21599;-73
2022/08/19 05:56:44;;;;;;;14.58;5.05;;;;;;;;;;1692591;85;21014;-72
2022/08/19 05:59:11;;;;;;;8.18;4.92;;;;;;;;;;1721981;80;21143;-74
2022/08/19 06:01:38;;;;;;;6.58;4.62;;;;;;;;;;1722840;81;21602;-73
2022/08/19 06:04:04;;;;;;;8.95;5.05;;;;;;;;;;1724924;82;21036;-73
2022/08/19 06:06:33;;;;;;;7.28;4.47;;;;;;;;;;1725393;81;21111;-73
2022/08/19 06:09:01;;;;;;;14.00;5.05;;;;;;;;;;1724570;81;21599;-73
2022/08/19 06:11:34;;;;;;;5.83;4.30;;;;;;;;;;1717076;82;21012;-73
2022/08/19 06:14:01;;;;;;;10.98;4.80;;;;;;;;;;1720582;81;21055;-72
2022/08/19 06:16:28;;;;;;;8.28;4.65;;;;;;;;;;1691239;84;21084;-72
2022/08/19 06:18:54;;;;;;;10.28;4.42;;;;;;;;;;1691992;85;21088;-73
2022/08/19 06:21:22;;;;;;;11.38;4.80;;;;;;;;;;1720475;81;21017;-73
2022/08/19 06:23:48;;;;;;;8.30;4.60;;;;;;;;;;1724617;81;21547;-72
2022/08/19 06:26:14;;;;;;;10.15;4.83;;;;;;;;;;1723276;82;21547;-73
2022/08/19 06:28:46;;;;;;;9.30;6.25;;;;;;;;;;1692052;84;21040;-73
2022/08/19 06:31:09;;;;;;;7.70;4.80;;;;;;;;;;1716057;82;21051;-73
2022/08/19 06:33:35;;;;;;;8.20;4.58;;;;;;;;;;1720871;82;21040;-73
2022/08/19 06:36:01;;;;;;;11.85;4.45;;;;;;;;;;1678136;83;21009;-72
2022/08/19 06:38:27;;;;;;;7.90;4.30;;;;;;;;;;1701806;83;21067;-72
2022/08/19 06:41:03;;;;;;;10.08;4.58;;;;;;;;;;1715944;82;21620;-73
2022/08/19 06:43:30;;;;;;;9.08;5.05;;;;;;;;;;1714574;82;21553;-73
2022/08/19 06:45:55;;;;;;;13.80;4.83;;;;;;;;;;1723240;82;20988;-73
2022/08/19 06:48:21;;;;;;;10.28;4.67;;;;;;;;;;1718740;83;21119;-73
2022/08/19 06:50:49;;;;;;;8.43;5.25;;;;;;;;;;1717102;83;21607;-73
2022/08/19 06:53:15;;;;;;;7.97;4.62;;;;;;;;;;1693295;84;21005;-73
2022/08/19 06:55:41;;;;;;;10.38;4.50;;;;;;;;;;1718699;82;21326;-73
2022/08/19 06:58:09;;;;;;;7.72;4.58;;;;;;;;;;1693823;83;21034;-73
2022/08/19 07:00:36;;;;;;;9.78;5.22;;;;;;;;;;1696790;83;21017;-73
2022/08/19 07:03:02;;;;;;;6.87;4.40;;;;;;;;;;1701224;82;21003;-73
2022/08/19 07:05:28;;;;;;;12.40;4.80;;;;;;;;;;1726321;81;21032;-73
2022/08/19 07:07:56;;;;;;;10.08;4.35;;;;;;;;;;1761476;81;21014;-73
2022/08/19 07:10:23;;;;;;;10.23;4.78;;;;;;;;;;1762501;81;21521;-73
2022/08/19 07:12:50;;;;;;;9.03;4.30;;;;;;;;;;1760125;80;21503;-73
2022/08/19 07:15:16;;;;;;;7.87;4.70;;;;;;;;;;1754160;81;21041;-73
2022/08/19 07:17:43;;;;;;;8.33;4.50;;;;;;;;;;1762092;81;21089;-73
2022/08/19 07:20:09;;;;;;;6.47;4.37;;;;;;;;;;1725970;82;21504;-73
2022/08/19 07:22:39;;;;;;;11.65;4.42;;;;;;;;;;1688548;83;21102;-72
2022/08/19 07:25:06;;;;;;;6.92;4.55;;;;;;;;;;1692270;83;21026;-72
2022/08/19 07:27:33;;;;;;;11.38;7.42;;;;;;;;;;1690935;83;21066;-74
2022/08/19 07:29:59;;;;;;;53.58;34.27;;;;;;;;;;1687887;83;21518;-73
2022/08/19 07:32:26;;;;;;;11.38;6.42;;;;;;;;;;1726437;82;21619;-75
2022/08/19 07:34:52;;;;;;;8.43;4.87;;;;;;;;;;1726890;82;21056;-76
2022/08/19 07:37:18;;;;;;;10.80;4.67;;;;;;;;;;1726445;82;21008;-76
2022/08/19 07:39:44;;;;;;;11.12;4.75;;;;;;;;;;1747920;81;21010;-75
2022/08/19 07:42:14;;;;;;;12.50;4.95;;;;;;;;;;1752908;81;21528;-75
2022/08/19 07:44:40;;;;;;;11.08;5.17;;;;;;;;;;1744613;82;21065;-75
2022/08/19 07:47:06;;;;;;;10.28;4.80;;;;;;;;;;1749306;82;21053;-75
2022/08/19 07:49:34;;;;;;;9.50;4.90;;;;;;;;;;1750309;82;21077;-75
2022/08/19 07:52:03;;;;;;;12.07;5.00;;;;;;;;;;1754538;81;21009;-75
2022/08/19 07:54:33;;;;;;;9.60;4.92;;;;;;;;;;1752794;81;21018;-75
2022/08/19 07:57:01;;;;;;;9.00;4.47;;;;;;;;;;1725537;82;21098;-75
2022/08/19 07:59:28;;;;;;;9.10;4.90;;;;;;;;;;1737766;81;21360;-75
2022/08/19 08:01:54;;;;;;;8.35;4.42;;;;;;;;;;1733266;82;21552;-74
2022/08/19 08:09:50;;;;;;;9.25;4.47;;;;;;;;;;1748832;81;21021;-74
2022/08/19 08:12:17;;;;;;;5.83;4.05;;;;;;;;;;1754605;82;20990;-73
2022/08/19 08:14:48;;;;;;;8.88;4.37;;;;;;;;;;1746137;81;21079;-74
2022/08/19 08:17:15;;;;;;;14.13;5.00;;;;;;;;;;1754320;82;20994;-75
2022/08/19 08:19:41;;;;;;;12.13;4.78;;;;;;;;;;1736380;82;21514;-75
2022/08/19 08:22:10;;;;;;;8.25;4.70;;;;;;;;;;1724856;83;21010;-75
2022/08/19 08:24:36;;;;;;;10.32;5.00;;;;;;;;;;1745861;82;21585;-75
2022/08/19 08:27:03;;;;;;;10.68;4.50;;;;;;;;;;1753070;81;21038;-75
2022/08/19 08:29:31;;;;;;;9.75;4.80;;;;;;;;;;1748531;82;20980;-73
2022/08/19 08:31:57;;;;;;;9.28;5.33;;;;;;;;;;1752194;82;21089;-72
2022/08/19 08:34:23;;;;;;;11.55;4.50;;;;;;;;;;1747758;81;21552;-72
2022/08/19 08:36:52;;;;;;;8.18;4.92;;;;;;;;;;1749472;81;21627;-72
2022/08/19 08:39:19;;;;;;;14.43;5.03;;;;;;;;;;1726817;81;21002;-74
2022/08/19 08:41:47;;;;;;;27.25;20.37;;;;;;;;;;1751026;81;21042;-75
2022/08/19 08:44:23;;;;;;;31.12;20.17;;;;;;;;;;1753444;82;21146;-75
2022/08/19 08:46:52;;;;;;;11.12;5.30;;;;;;;;;;1749855;82;21022;-75
2022/08/19 08:49:20;;;;;;;9.35;4.95;;;;;;;;;;1753048;81;21061;-72
2022/08/19 08:51:48;;;;;;;7.70;5.35;;;;;;;;;;1753055;82;21002;-73
2022/08/19 08:54:16;;;;;;;7.67;4.62;;;;;;;;;;1723951;82;21077;-73
2022/08/19 08:56:44;;;;;;;10.63;5.17;;;;;;;;;;1734747;81;21038;-74
2022/08/19 08:59:12;;;;;;;7.72;4.92;;;;;;;;;;1754778;81;21086;-74
2022/08/19 09:01:43;;;;;;;8.38;4.70;;;;;;;;;;1754607;81;21042;-74
2022/08/19 09:04:13;;;;;;;7.97;4.97;;;;;;;;;;1752268;82;20986;-74
2022/08/19 09:06:49;;;;;;;10.30;4.95;;;;;;;;;;1747595;81;21061;-74
2022/08/19 09:09:30;;;;;;;8.33;5.37;;;;;;;;;;1743817;81;21010;-75
2022/08/19 09:12:12;;;;;;;9.75;4.60;;;;;;;;;;1732596;81;21024;-74
2022/08/19 09:14:40;;;;;;;;;;;;;;;;;;1759759;80;21041;-74
2022/08/19 09:17:08;;;;;;;10.53;4.97;;;;;;;;;;1743273;80;20578;-74
2022/08/19 09:19:50;;;;;;;8.18;4.83;;;;;;;;;;1740971;80;21064;-74
2022/08/19 09:22:16;;;;;;;7.17;5.10;;;;;;;;;;1741119;80;21529;-75
2022/08/19 09:24:44;;;;;;;11.88;5.50;;;;;;;;;;1755554;80;21088;-74
2022/08/19 09:27:10;;;;;;;12.53;5.72;;;;;;;;;;1760712;81;21161;-72
2022/08/19 09:29:36;;;;;;;12.28;5.10;;;;;;;;;;1760979;80;21026;-72
2022/08/19 09:32:02;;;;;;;9.23;4.95;;;;;;;;;;1758640;80;21021;-76
2022/08/19 09:34:29;;;;;;;16.90;5.92;;;;;;;;;;1762335;81;21140;-77
2022/08/19 09:36:58;;;;;;;8.73;4.67;;;;;;;;;;1762461;81;21521;-77
2022/08/19 09:39:23;;;;;;;10.68;5.10;;;;;;;;;;1749592;80;21046;-73
2022/08/19 09:41:52;;;;;;;7.53;4.65;;;;;;;;;;1730829;83;21545;-73
2022/08/19 09:44:20;;;;;;;96.90;61.33;;;;;;;;;;1743117;81;22381;-75
2022/08/19 09:46:50;;;;;;;18.42;10.72;;;;;;;;;;1719312;82;21036;-74
2022/08/19 09:49:17;;;;;;;14.53;5.75;;;;;;;;;;1705534;82;21021;-77
2022/08/19 09:51:43;;;;;;;9.15;5.45;;;;;;;;;;1716642;82;21050;-77
2022/08/19 09:54:10;;;;;;;7.03;5.30;;;;;;;;;;1712275;82;21079;-78
2022/08/19 09:56:36;;;;;;;8.93;5.20;;;;;;;;;;1697437;84;21071;-78
2022/08/19 09:59:04;;;;;;;8.95;5.40;;;;;;;;;;1691122;85;21045;-77
2022/08/19 10:01:30;;;;;;;9.68;5.58;;;;;;;;;;1735929;82;21022;-77
2022/08/19 10:03:57;;;;;;;11.05;5.33;;;;;;;;;;1737879;82;21069;-77
2022/08/19 10:06:25;;;;;;;10.72;5.47;;;;;;;;;;1714546;84;21034;-78
2022/08/19 10:08:51;;;;;;;12.33;5.25;;;;;;;;;;1739905;82;21541;-79
2022/08/19 10:11:18;;;;;;;10.23;5.35;;;;;;;;;;1742917;82;21081;-72
2022/08/19 10:13:45;;;;;;;9.05;5.12;;;;;;;;;;1742178;82;21717;-71
2022/08/19 10:16:12;;;;;;;11.12;5.42;;;;;;;;;;1742867;82;21502;-71
2022/08/19 10:18:39;;;;;;;9.75;5.37;;;;;;;;;;1743622;82;21054;-71
2022/08/19 10:21:08;;;;;;;8.48;5.22;;;;;;;;;;1725396;82;21032;-73
2022/08/19 10:23:38;;;;;;;8.80;4.85;;;;;;;;;;1739094;82;21179;-72
2022/08/19 10:26:05;;;;;;;11.20;5.50;;;;;;;;;;1742249;82;21029;-73
2022/08/19 10:28:33;;;;;;;13.18;5.35;;;;;;;;;;1743528;82;21321;-74
2022/08/19 10:31:02;;;;;;;9.83;5.55;;;;;;;;;;1730894;81;21169;-74
2022/08/19 10:33:28;;;;;;;9.83;5.80;;;;;;;;;;1743230;82;21065;-73
2022/08/19 10:36:00;;;;;;;12.80;5.95;;;;;;;;;;1743270;82;21011;-73
2022/08/19 10:38:26;;;;;;;9.63;5.12;;;;;;;;;;1743295;82;21042;-72
2022/08/19 10:40:52;;;;;;;9.50;5.45;;;;;;;;;;1744100;82;21046;-74
2022/08/19 10:43:21;;;;;;;7.58;4.97;;;;;;;;;;1739071;82;21015;-73
2022/08/19 10:45:56;;;;;;;10.23;5.15;;;;;;;;;;1743913;82;21081;-73
2022/08/19 10:48:21;;;;;;;11.97;5.50;;;;;;;;;;1735483;82;21014;-73
2022/08/19 10:53:32;;;;;;;36.65;27.27;;;;;;;;;;1741801;82;21545;-72
2022/08/19 10:58:44;;;;;;;7.83;5.37;;;;;;;;;;1744193;82;21120;-73
2022/08/19 11:01:10;;;;;;;14.40;6.15;;;;;;;;;;1729554;81;21046;-72
2022/08/19 11:03:37;;;;;;;8.38;5.10;;;;;;;;;;1732395;81;21026;-72
2022/08/19 11:06:04;;;;;;;8.05;5.45;;;;;;;;;;1729766;81;21517;-73
2022/08/19 11:08:30;;;;;;;9.78;5.80;;;;;;;;;;1712534;81;22371;-72
2022/08/19 11:11:00;;;;;;;9.85;4.87;;;;;;;;;;1709004;81;21084;-71
2022/08/19 11:13:27;;;;;;;8.10;5.28;;;;;;;;;;1710636;81;21554;-72
2022/08/19 11:15:57;;;;;;;8.75;5.30;;;;;;;;;;1709659;81;21032;-72
2022/08/19 11:18:23;;;;;;;10.40;4.97;;;;;;;;;;1704863;81;21039;-72
2022/08/19 11:20:50;;;;;;;7.40;4.78;;;;;;;;;;1708654;81;21033;-75
2022/08/19 11:23:16;;;;;;;9.48;5.28;;;;;;;;;;1712485;81;21127;-72
2022/08/19 11:25:42;;;;;;;8.10;4.60;;;;;;;;;;1719311;83;21560;-72
2022/08/19 11:28:08;;;;;;;6.78;4.40;;;;;;;;;;1713299;82;21525;-73
2022/08/19 11:30:34;;;;;;;15.13;5.72;;;;;;;;;;1719522;83;21029;-74
2022/08/19 11:33:00;;;;;;;9.63;4.33;;;;;;;;;;1699085;83;21028;-73
2022/08/19 11:35:27;;;;;;;12.03;4.95;;;;;;;;;;1721077;82;21041;-73
2022/08/19 11:37:53;;;;;;;7.78;4.67;;;;;;;;;;1723671;83;21032;-70
2022/08/19 11:40:19;;;;;;;6.65;4.37;;;;;;;;;;1725474;83;21028;-71
2022/08/19 11:42:55;;;;;;;8.80;5.15;;;;;;;;;;1724697;81;21104;-72
2022/08/19 11:45:22;;;;;;;63.23;49.53;;;;;;;;;;1716403;83;21069;-73
2022/08/19 11:47:48;;;;;;;16.02;11.45;;;;;;;;;;1722404;83;21551;-73
2022/08/19 11:50:15;;;;;;;19.67;9.35;;;;;;;;;;1725882;82;21063;-72
2022/08/19 11:52:41;;;;;;;8.58;4.75;;;;;;;;;;1723758;82;21028;-74
2022/08/19 11:55:08;;;;;;;11.65;4.90;;;;;;;;;;1722593;81;21024;-73
2022/08/19 11:57:34;;;;;;;9.73;4.70;;;;;;;;;;1724313;82;21143;-75
2022/08/19 12:00:01;;;;;;;11.63;4.80;;;;;;;;;;1693115;85;21522;-74
2022/08/19 12:02:28;;;;;;;8.98;4.75;;;;;;;;;;1725349;83;21092;-75
2022/08/19 12:04:53;;;;;;;6.53;4.22;;;;;;;;;;1695050;83;21090;-76
2022/08/19 12:07:20;;;;;;;11.65;5.35;;;;;;;;;;1716142;82;21080;-72
2022/08/19 12:09:46;;;;;;;6.03;4.20;;;;;;;;;;1725224;83;21024;-73
2022/08/19 12:12:12;;;;;;;9.25;4.40;;;;;;;;;;1725382;83;21528;-72
2022/08/19 12:17:33;;;;;;;8.75;4.55;;;;;;;;;;1781588;79;23509;-71
2022/08/19 12:19:59;;;;;;;8.58;4.97;;;;;;;;;;1790671;79;21538;-72
2022/08/19 12:22:26;;;;;;;7.58;4.92;;;;;;;;;;1762346;80;21491;-72
2022/08/19 12:24:53;;;;;;;7.50;4.30;;;;;;;;;;1784608;80;21078;-76
2022/08/19 12:27:19;;;;;;;8.35;4.83;;;;;;;;;;1779675;79;21066;-76
2022/08/19 12:29:45;;;;;;;9.13;4.67;;;;;;;;;;1790297;79;21003;-76
2022/08/19 12:32:12;;;;;;;8.33;4.60;;;;;;;;;;1776330;79;21265;-75
2022/08/19 12:34:38;;;;;;;11.48;4.62;;;;;;;;;;1782408;79;21016;-74
2022/08/19 12:37:05;;;;;;;7.42;4.20;;;;;;;;;;1791531;80;21587;-76
2022/08/19 12:39:38;;;;;;;6.60;4.33;;;;;;;;;;1790025;79;21024;-75
2022/08/19 12:42:05;;;;;;;7.87;4.22;;;;;;;;;;1769451;80;21051;-75
2022/08/19 12:44:32;;;;;;;7.37;4.65;;;;;;;;;;1786749;80;20977;-76
2022/08/19 12:46:58;;;;;;;9.48;4.70;;;;;;;;;;1771226;79;21591;-76
2022/08/19 12:49:24;;;;;;;7.03;4.17;;;;;;;;;;1787034;80;21066;-75
2022/08/19 12:51:52;;;;;;;8.20;4.53;;;;;;;;;;1778111;80;20969;-76
2022/08/19 12:54:18;;;;;;;8.68;4.80;;;;;;;;;;1777698;80;21575;-74
2022/08/19 12:56:44;;;;;;;7.35;4.30;;;;;;;;;;1761730;80;21080;-75
2022/08/19 12:59:11;;;;;;;5.72;4.53;;;;;;;;;;1722251;81;21126;-75
2022/08/19 13:01:37;;;;;;;8.60;4.60;;;;;;;;;;1702410;83;21482;-75
2022/08/19 13:04:04;;;;;;;12.28;4.78;;;;;;;;;;1715477;83;21016;-74
2022/08/19 13:06:31;;;;;;;9.40;5.00;;;;;;;;;;1712634;82;21040;-74
2022/08/19 13:08:57;;;;;;;6.62;4.20;;;;;;;;;;1691272;83;20985;-75
2022/08/19 13:11:24;;;;;;;6.83;4.30;;;;;;;;;;1693068;84;21103;-75
2022/08/19 13:13:50;;;;;;;7.90;4.85;;;;;;;;;;1707916;83;21548;-75
2022/08/19 13:16:16;;;;;;;8.55;4.33;;;;;;;;;;1693876;83;21054;-75
2022/08/19 13:18:44;;;;;;;12.53;5.15;;;;;;;;;;1683392;84;21020;-75
2022/08/19 13:21:12;;;;;;;6.90;4.40;;;;;;;;;;1715419;84;21056;-74
2022/08/19 13:23:38;;;;;;;9.13;4.87;;;;;;;;;;1683672;84;21084;-73
2022/08/19 13:26:05;;;;;;;10.63;4.70;;;;;;;;;;1709945;82;21017;-73
2022/08/19 13:33:10;;;;;;;9.83;4.80;;;;;;;;;;1721225;83;22008;-74
2022/08/19 13:33:45;;;;;;;10.18;4.60;;;;;;;;;;1712340;83;21342;-74
2022/08/19 13:36:11;;;;;;;9.00;4.70;;;;;;;;;;1713310;83;21453;-73
2022/08/19 13:38:37;;;;;;;6.17;4.30;;;;;;;;;;1684128;84;21074;-73
2022/08/19 13:41:04;;;;;;;7.70;4.50;;;;;;;;;;1714279;83;20990;-72
2022/08/19 13:43:30;;;;;;;8.98;4.40;;;;;;;;;;1686440;85;21150;-72
2022/08/19 13:45:56;;;;;;;9.58;4.58;;;;;;;;;;1686174;85;21032;-72
2022/08/19 13:48:23;;;;;;;7.33;4.55;;;;;;;;;;1702201;83;21182;-72
2022/08/19 13:50:49;;;;;;;5.58;4.85;;;;;;;;;;1703563;83;21436;-72
2022/08/19 13:53:15;;;;;;;9.83;4.17;;;;;;;;;;1702412;84;22242;-72
2022/08/19 13:55:42;;;;;;;6.42;4.37;;;;;;;;;;1668621;84;21082;-72
2022/08/19 13:58:09;;;;;;;8.78;4.72;;;;;;;;;;1679793;84;21029;-73
2022/08/19 14:00:36;;;;;;;9.30;4.33;;;;;;;;;;1713781;83;21079;-73
2022/08/19 14:03:03;;;;;;;12.75;4.65;;;;;;;;;;1714670;84;21041;-73
2022/08/19 14:05:29;;;;;;;5.45;4.20;;;;;;;;;;1715318;84;21006;-73
2022/08/19 14:07:55;;;;;;;10.60;4.70;;;;;;;;;;1713662;83;21532;-72
2022/08/19 14:10:21;;;;;;;10.75;5.03;;;;;;;;;;1714984;84;21021;-72
2022/08/19 14:12:47;;;;;;;23.15;16.73;;;;;;;;;;1709866;84;21037;-73
2022/08/19 14:15:13;;;;;;;45.98;35.60;;;;;;;;;;1681995;84;21509;-73
2022/08/19 14:17:39;;;;;;;10.28;6.17;;;;;;;;;;1705365;82;21010;-70
2022/08/19 14:20:07;;;;;;;11.35;4.70;;;;;;;;;;1687506;84;21002;-70
2022/08/19 14:22:35;;;;;;;9.65;4.15;;;;;;;;;;1747614;82;21595;-71
2022/08/19 14:25:01;;;;;;;6.50;4.30;;;;;;;;;;1744932;80;21012;-71
2022/08/19 14:27:27;;;;;;;11.30;4.67;;;;;;;;;;1713794;83;21029;-72
2022/08/19 14:29:53;;;;;;;7.53;4.20;;;;;;;;;;1740080;82;21812;-71
2022/08/19 14:32:19;;;;;;;8.40;4.45;;;;;;;;;;1732520;82;21625;-72
2022/08/19 14:34:45;;;;;;;7.42;4.58;;;;;;;;;;1741903;82;21655;-72
2022/08/19 14:37:14;;;;;;;7.22;4.78;;;;;;;;;;1744332;82;21513;-71
2022/08/19 14:39:41;;;;;;;9.68;4.80;;;;;;;;;;1747870;82;21556;-70
2022/08/19 14:42:08;;;;;;;8.55;4.80;;;;;;;;;;1737072;81;20993;-71
2022/08/19 14:44:34;;;;;;;9.18;4.37;;;;;;;;;;1725053;83;21025;-72
2022/08/19 14:47:01;;;;;;;10.40;5.15;;;;;;;;;;1724721;83;21108;-72
2022/08/19 14:49:27;;;;;;;8.15;4.75;;;;;;;;;;1724694;83;21025;-72
2022/08/19 14:51:53;;;;;;;6.87;4.17;;;;;;;;;;1724797;83;21782;-71
2022/08/19 14:54:19;;;;;;;8.80;4.53;;;;;;;;;;1725898;81;21018;-71
2022/08/19 14:56:45;;;;;;;7.22;4.37;;;;;;;;;;1722875;82;21116;-71
2022/08/19 14:59:11;;;;;;;9.98;4.72;;;;;;;;;;1730338;82;20974;-71
2022/08/19 15:01:37;;;;;;;8.38;5.30;;;;;;;;;;1733992;81;21000;-71
2022/08/19 15:04:03;;;;;;;7.78;4.90;;;;;;;;;;1737061;81;21101;-72
2022/08/19 15:06:30;;;;;;;10.43;4.47;;;;;;;;;;1733515;82;21084;-71